PWSweather.com
Personal Weather Stations
Station Observations

ThassosGR

Lat: 40.743206, Lon: 24.577205

Elevation: 150

Station Type:

http://www.realestate-thassos.com/weather-thassos/

Latest ConditionsUpdated 6:15:34 AM GMT+02:02 Friday, Dec 14, 2018
Currently Today's Max Today's Min Today's Average
Temperature 44.2°F6.8°C 45.3°F7.4°C 44.1°F6.7°C 44.6°F7.0°C
Dew Point 43.7°F6.5°C 44.5°F6.9°C 42.1°F5.6°C 43.1°F6.2°C
Winds Calm Calm 4.5 mph -7.2 kmh - - 1.3 mph 2.1 kmh
Wind Gusts 1.6 mph2.6 kmh 14.5 mph23.3 kmh - -
Humidity 98% 98% 89% 95%
Pressure 30.00 in1015.9 mb 30.05 in1017.6 mb 29.98 in1015.2 mb -
Hour Temp Dew Point Humidity Winds Wind Gusts Pressure Precip Precip Rate Daily Precip Total
06:15 AM 44.2°F6.8°C 43.7°F6.5°C 98% Calm Calm 1.6 mph2.6 kmh 30.00 in1015.9 mb 0.00 in0.0 mm 0.00 in0.0 mm 0.00 in0.0 mm
06:01 AM 44.2°F6.8°C 43.7°F6.5°C 98% Calm Calm -- 29.98 in1015.2 mb 0.00 in0.0 mm 0.00 in0.0 mm 0.00 in0.0 mm
05:47 AM 44.4°F6.9°C 43.9°F6.6°C 98% Calm Calm 1.6 mph2.6 kmh 29.98 in1015.2 mb 0.00 in0.0 mm 0.00 in0.0 mm 0.00 in0.0 mm
05:33 AM 44.6°F7.0°C 43.8°F6.6°C 97% Calm Calm 2.2 mph3.5 kmh 29.98 in1015.2 mb 0.00 in0.0 mm 0.00 in0.0 mm 0.00 in0.0 mm
05:19 AM 45.1°F7.3°C 44.3°F6.8°C 97% 0.7 mph N1.1 kmh N 3.1 mph5.0 kmh 29.98 in1015.2 mb 0.00 in0.0 mm 0.00 in0.0 mm 0.00 in0.0 mm
05:05 AM 45.3°F7.4°C 44.5°F6.9°C 97% 1.6 mph E2.6 kmh E 3.1 mph5.0 kmh 29.98 in1015.2 mb 0.00 in0.0 mm 0.00 in0.0 mm 0.00 in0.0 mm
04:51 AM 45.1°F7.3°C 44.3°F6.8°C 97% 2.2 mph NW3.5 kmh NW 3.1 mph5.0 kmh 29.98 in1015.2 mb 0.00 in0.0 mm 0.00 in0.0 mm 0.00 in0.0 mm
04:23 AM 44.6°F7.0°C 43.8°F6.6°C 97% 1.6 mph NW2.6 kmh NW 3.8 mph6.1 kmh 29.98 in1015.2 mb 0.00 in0.0 mm 0.00 in0.0 mm 0.00 in0.0 mm
04:09 AM 44.2°F6.8°C 43.7°F6.5°C 98% Calm Calm 2.2 mph3.5 kmh 29.98 in1015.2 mb 0.00 in0.0 mm 0.00 in0.0 mm 0.00 in0.0 mm
03:55 AM 44.2°F6.8°C 43.2°F6.2°C 96% 0.7 mph N1.1 kmh N 3.8 mph6.1 kmh 29.99 in1015.6 mb 0.00 in0.0 mm 0.00 in0.0 mm 0.00 in0.0 mm
03:41 AM 44.4°F6.9°C 43.1°F6.2°C 95% Calm Calm 1.6 mph2.6 kmh 29.99 in1015.6 mb 0.00 in0.0 mm 0.00 in0.0 mm 0.00 in0.0 mm
03:27 AM 44.4°F6.9°C 42.8°F6.0°C 94% Calm Calm 1.6 mph2.6 kmh 30.00 in1015.9 mb 0.00 in0.0 mm 0.00 in0.0 mm 0.00 in0.0 mm
03:13 AM 44.4°F6.9°C 42.8°F6.0°C 94% Calm Calm 1.6 mph2.6 kmh 30.00 in1015.9 mb 0.00 in0.0 mm 0.00 in0.0 mm 0.00 in0.0 mm
02:59 AM 44.4°F6.9°C 42.5°F5.8°C 93% 0.7 mph NW1.1 kmh NW 2.2 mph3.5 kmh 30.00 in1015.9 mb 0.00 in0.0 mm 0.00 in0.0 mm 0.00 in0.0 mm
02:45 AM 44.6°F7.0°C 42.1°F5.6°C 91% Calm Calm 2.2 mph3.5 kmh 30.01 in1016.3 mb 0.00 in0.0 mm 0.00 in0.0 mm 0.00 in0.0 mm
02:31 AM 45.0°F7.2°C 42.2°F5.7°C 90% Calm Calm 3.8 mph6.1 kmh 30.01 in1016.3 mb 0.00 in0.0 mm 0.00 in0.0 mm 0.00 in0.0 mm
02:17 AM 45.1°F7.3°C 42.1°F5.6°C 89% 0.7 mph E1.1 kmh E 5.4 mph8.7 kmh 30.02 in1016.6 mb 0.00 in0.0 mm 0.00 in0.0 mm 0.00 in0.0 mm
02:03 AM 45.0°F7.2°C 42.2°F5.7°C 90% 3.1 mph NE5.0 kmh NE 6.9 mph11.1 kmh 30.02 in1016.6 mb 0.00 in0.0 mm 0.00 in0.0 mm 0.00 in0.0 mm
01:49 AM 44.8°F7.1°C 42.3°F5.7°C 91% 2.2 mph NW3.5 kmh NW 9.2 mph14.8 kmh 30.02 in1016.6 mb 0.00 in0.0 mm 0.00 in0.0 mm 0.00 in0.0 mm
01:35 AM 44.8°F7.1°C 42.6°F5.9°C 92% 1.6 mph ENE2.6 kmh ENE 9.8 mph15.8 kmh 30.02 in1016.6 mb 0.00 in0.0 mm 0.00 in0.0 mm 0.00 in0.0 mm
01:21 AM 44.6°F7.0°C 42.7°F5.9°C 93% 3.8 mph NNW6.1 kmh NNW 11.4 mph18.3 kmh 30.02 in1016.6 mb 0.00 in0.0 mm 0.00 in0.0 mm 0.00 in0.0 mm
01:07 AM 44.2°F6.8°C 42.9°F6.1°C 95% 3.8 mph N6.1 kmh N 6.0 mph9.7 kmh 30.02 in1016.6 mb 0.00 in0.0 mm 0.00 in0.0 mm 0.00 in0.0 mm
12:53 AM 44.2°F6.8°C 42.9°F6.1°C 95% 1.6 mph NE2.6 kmh NE 9.2 mph14.8 kmh 30.02 in1016.6 mb 0.00 in0.0 mm 0.00 in0.0 mm 0.00 in0.0 mm
12:39 AM 44.2°F6.8°C 42.9°F6.1°C 95% Calm Calm 7.6 mph12.2 kmh 30.04 in1017.3 mb 0.00 in0.0 mm 0.00 in0.0 mm 0.00 in0.0 mm
12:25 AM 44.2°F6.8°C 42.9°F6.1°C 95% 3.8 mph N6.1 kmh N 14.5 mph23.3 kmh 30.04 in1017.3 mb 0.00 in0.0 mm 0.00 in0.0 mm 0.00 in0.0 mm
12:11 AM 44.1°F6.7°C 43.3°F6.3°C 97% 4.5 mph WNW7.2 kmh WNW 9.8 mph15.8 kmh 30.05 in1017.6 mb 0.00 in0.0 mm 0.00 in0.0 mm 0.00 in0.0 mm